Time;durP1;ratioP1;P1;durP2;ratioP2;P2;SDS_P1;SDS_P2;PMS_P1;PMS_P2;Temp;Humidity;BMP_temperature;BMP_pressure;BME280_temperature;BME280_humidity;BME280_pressure;Samples;Min_cycle;Max_cycle;Signal;HPM_P1;HPM_P2
2021/08/28 00:03:34;;;;;;;2.78;0.65;;;14.10;99.90;;;;;;10363469;28;20103;-61
2021/08/28 00:08:36;;;;;;;2.95;0.90;;;14.10;99.90;;;;;;10359235;28;20042;-61
2021/08/28 00:13:39;;;;;;;0.80;0.70;;;14.00;99.90;;;;;;10357532;28;20546;-61
2021/08/28 00:18:44;;;;;;;1.63;1.30;;;13.90;99.90;;;;;;10359671;28;20052;-61
2021/08/28 00:23:45;;;;;;;3.80;1.45;;;13.80;99.90;;;;;;10365013;28;20121;-61
2021/08/28 00:28:47;;;;;;;1.25;0.80;;;13.70;99.90;;;;;;10365130;28;20054;-61
2021/08/28 00:33:49;;;;;;;1.48;1.00;;;13.70;99.90;;;;;;10369728;28;20368;-61
2021/08/28 00:38:50;;;;;;;1.67;0.65;;;13.70;99.90;;;;;;10367248;28;20149;-61
2021/08/28 00:43:52;;;;;;;1.88;0.88;;;13.70;99.90;;;;;;10366047;28;20081;-61
2021/08/28 00:48:54;;;;;;;2.20;0.73;;;13.70;99.90;;;;;;10367427;28;20123;-61
2021/08/28 00:53:55;;;;;;;1.65;0.75;;;13.70;99.90;;;;;;10381432;28;20670;-61
2021/08/28 00:58:57;;;;;;;0.90;0.60;;;13.80;99.90;;;;;;10369995;28;20049;-61
2021/08/28 01:04:00;;;;;;;1.27;0.70;;;13.70;99.90;;;;;;10362532;28;20093;-61
2021/08/28 01:09:08;;;;;;;1.65;1.00;;;13.70;99.90;;;;;;10363458;28;20481;-61
2021/08/28 01:14:14;;;;;;;1.23;0.88;;;13.70;99.90;;;;;;10367388;28;20065;-61
2021/08/28 01:19:35;;;;;;;1.92;1.20;;;13.70;99.90;;;;;;10365222;28;20121;-61
2021/08/28 01:24:41;;;;;;;3.17;0.90;;;13.70;99.90;;;;;;10363570;28;20049;-61
2021/08/28 01:29:43;;;;;;;1.52;1.00;;;13.70;99.90;;;;;;10370145;28;20062;-61
2021/08/28 01:34:46;;;;;;;1.13;0.70;;;13.60;99.90;;;;;;10368422;28;20054;-61
2021/08/28 01:39:51;;;;;;;2.83;0.80;;;13.60;99.90;;;;;;10363376;28;20056;-61
2021/08/28 01:44:54;;;;;;;2.60;1.33;;;13.50;99.90;;;;;;10373595;28;20405;-61
2021/08/28 01:49:57;;;;;;;2.45;1.10;;;13.40;99.90;;;;;;10366263;28;20057;-61
2021/08/28 01:54:58;;;;;;;2.60;1.60;;;13.30;99.90;;;;;;10365185;28;20085;-61
2021/08/28 02:00:01;;;;;;;5.03;1.45;;;13.10;99.90;;;;;;10366081;28;20053;-61
2021/08/28 02:05:04;;;;;;;5.43;1.20;;;13.00;99.90;;;;;;10365494;28;20133;-61
2021/08/28 02:10:23;;;;;;;7.10;1.17;;;13.00;99.90;;;;;;10363845;28;20095;-61
2021/08/28 02:15:29;;;;;;;3.28;1.42;;;12.90;99.90;;;;;;10366626;28;20068;-61
2021/08/28 02:20:38;;;;;;;2.20;1.30;;;12.80;99.90;;;;;;10365198;28;20073;-61
2021/08/28 02:25:58;;;;;;;1.35;1.10;;;12.70;99.90;;;;;;10360946;28;20480;-61
2021/08/28 02:31:02;;;;;;;2.63;1.50;;;12.60;99.90;;;;;;10363648;28;20074;-61
2021/08/28 02:36:05;;;;;;;1.90;1.30;;;12.60;99.90;;;;;;10361538;28;20138;-61
2021/08/28 02:41:07;;;;;;;4.63;1.45;;;12.50;99.90;;;;;;10365787;28;20045;-61
2021/08/28 02:46:10;;;;;;;2.50;1.17;;;12.40;99.90;;;;;;10363306;28;20140;-61
2021/08/28 02:51:12;;;;;;;3.00;1.33;;;12.40;99.90;;;;;;10358894;28;20072;-61
2021/08/28 02:56:15;;;;;;;2.75;1.20;;;12.20;99.90;;;;;;10366549;28;20049;-61
2021/08/28 03:01:18;;;;;;;1.77;0.93;;;12.20;99.90;;;;;;10361298;28;20049;-61
2021/08/28 03:06:20;;;;;;;1.73;1.00;;;12.20;99.90;;;;;;10359807;28;20042;-61
2021/08/28 03:11:23;;;;;;;1.63;0.90;;;12.10;99.90;;;;;;10366303;28;20099;-61
2021/08/28 03:16:28;;;;;;;1.40;1.23;;;12.10;99.90;;;;;;10357462;28;20073;-61
2021/08/28 03:21:32;;;;;;;1.35;1.02;;;12.00;99.90;;;;;;10368175;28;20049;-61
2021/08/28 03:26:34;;;;;;;3.17;1.05;;;12.00;99.90;;;;;;10364870;28;20963;-61
2021/08/28 03:31:36;;;;;;;2.33;1.63;;;12.00;99.90;;;;;;10360402;28;20077;-61
2021/08/28 03:36:38;;;;;;;3.45;1.95;;;11.90;99.90;;;;;;10361074;28;20132;-61
2021/08/28 03:41:40;;;;;;;4.47;1.58;;;12.00;99.90;;;;;;10358543;28;20079;-61
2021/08/28 03:46:44;;;;;;;2.63;1.30;;;11.90;99.90;;;;;;10362503;28;20046;-61
2021/08/28 03:51:45;;;;;;;2.45;1.48;;;11.90;99.90;;;;;;10358830;28;20169;-61
2021/08/28 03:56:47;;;;;;;4.10;1.65;;;11.90;99.90;;;;;;10363017;28;20049;-61
2021/08/28 04:01:49;;;;;;;3.33;1.40;;;11.90;99.90;;;;;;10361537;28;20440;-61
2021/08/28 04:06:51;;;;;;;4.53;2.53;;;11.90;99.90;;;;;;10368969;28;20059;-61
2021/08/28 04:11:53;;;;;;;3.47;2.50;;;11.90;99.90;;;;;;10374360;28;20050;-61
2021/08/28 04:16:54;;;;;;;3.50;2.00;;;11.80;99.90;;;;;;10368726;28;20130;-61
2021/08/28 04:21:56;;;;;;;2.03;1.63;;;11.80;99.90;;;;;;10368432;28;20583;-61
2021/08/28 04:26:58;;;;;;;3.38;1.80;;;11.80;99.90;;;;;;10371759;28;20140;-61
2021/08/28 04:31:59;;;;;;;3.17;1.70;;;11.80;99.90;;;;;;10366720;28;20058;-61
2021/08/28 04:37:01;;;;;;;2.65;1.63;;;11.80;99.90;;;;;;10368586;28;20103;-66
2021/08/28 04:42:03;;;;;;;2.22;1.90;;;11.90;99.90;;;;;;10358796;28;20041;-66
2021/08/28 04:47:04;;;;;;;2.92;1.60;;;11.90;99.90;;;;;;10366365;28;20111;-66
2021/08/28 04:52:07;;;;;;;4.88;1.83;;;12.00;99.90;;;;;;10367869;28;20053;-66
2021/08/28 04:57:08;;;;;;;7.30;2.00;;;12.00;99.90;;;;;;10370277;28;20533;-66
2021/08/28 05:02:10;;;;;;;2.60;1.77;;;12.10;99.90;;;;;;10365414;28;20074;-66
2021/08/28 05:07:12;;;;;;;6.45;2.42;;;12.10;99.90;;;;;;10363093;28;20089;-66
2021/08/28 05:12:14;;;;;;;2.00;1.42;;;12.20;99.90;;;;;;10364999;28;20370;-66
2021/08/28 05:17:15;;;;;;;2.47;1.80;;;12.30;99.90;;;;;;10364548;28;21300;-66
2021/08/28 05:22:17;;;;;;;2.42;1.70;;;12.40;99.90;;;;;;10365275;28;20713;-66
2021/08/28 05:27:19;;;;;;;2.30;1.50;;;12.50;99.90;;;;;;10369377;28;20541;-66
2021/08/28 05:32:20;;;;;;;2.65;1.90;;;12.60;99.90;;;;;;10361986;28;20049;-66
2021/08/28 05:37:22;;;;;;;4.47;1.58;;;12.70;99.90;;;;;;10365845;28;20131;-66
2021/08/28 05:42:24;;;;;;;2.60;1.50;;;12.80;99.90;;;;;;10368487;28;20045;-66
2021/08/28 05:47:25;;;;;;;3.20;1.52;;;12.80;99.90;;;;;;10359946;28;20077;-66
2021/08/28 05:52:27;;;;;;;3.22;1.67;;;12.80;99.90;;;;;;10365869;28;20525;-65
2021/08/28 05:57:29;;;;;;;4.95;2.08;;;12.90;99.90;;;;;;10365928;28;20124;-65
2021/08/28 06:02:31;;;;;;;2.90;1.55;;;13.00;99.90;;;;;;10361301;28;20049;-66
2021/08/28 06:07:33;;;;;;;2.67;1.60;;;13.10;99.90;;;;;;10363940;28;20050;-65
2021/08/28 06:12:36;;;;;;;4.47;1.80;;;13.20;99.90;;;;;;10365081;28;20103;-65
2021/08/28 06:17:37;;;;;;;4.53;1.98;;;13.20;99.90;;;;;;10363921;28;20525;-65
2021/08/28 06:22:39;;;;;;;3.65;1.80;;;13.20;99.90;;;;;;10359915;28;20080;-65
2021/08/28 06:27:41;;;;;;;2.25;1.73;;;13.30;99.90;;;;;;10367074;28;20142;-65
2021/08/28 06:32:42;;;;;;;5.05;1.70;;;13.40;99.90;;;;;;10366394;28;20582;-65
2021/08/28 06:37:44;;;;;;;3.65;1.90;;;13.40;99.90;;;;;;10362765;28;20050;-66
2021/08/28 06:42:46;;;;;;;3.03;1.90;;;13.40;99.90;;;;;;10368847;28;20053;-65
2021/08/28 06:47:48;;;;;;;4.05;2.55;;;13.50;99.90;;;;;;10359270;28;20119;-65
2021/08/28 06:52:50;;;;;;;2.58;1.70;;;13.50;99.90;;;;;;10356954;28;20050;-66
2021/08/28 06:57:52;;;;;;;3.20;2.08;;;13.60;99.90;;;;;;10365739;28;20053;-66
2021/08/28 07:02:53;;;;;;;3.33;2.58;;;13.60;99.90;;;;;;10357869;28;20050;-66
2021/08/28 07:07:55;;;;;;;4.88;2.83;;;13.60;99.90;;;;;;10361851;28;20037;-65
2021/08/28 07:12:57;;;;;;;4.80;2.55;;;13.60;99.90;;;;;;10364256;28;20076;-66
2021/08/28 07:17:59;;;;;;;5.00;2.78;;;13.60;99.90;;;;;;10370933;28;20138;-66
2021/08/28 07:23:00;;;;;;;5.30;2.78;;;13.70;99.90;;;;;;10370811;28;20049;-66
2021/08/28 07:28:03;;;;;;;3.72;2.65;;;13.70;99.90;;;;;;10346442;28;20069;-66
2021/08/28 07:33:06;;;;;;;4.15;2.63;;;13.90;99.90;;;;;;10356795;28;20053;-66
2021/08/28 07:38:07;;;;;;;4.10;2.63;;;14.00;99.90;;;;;;10360979;28;20131;-66
2021/08/28 07:43:09;;;;;;;5.57;2.60;;;14.10;99.90;;;;;;10364667;28;20455;-66
2021/08/28 07:48:11;;;;;;;4.45;2.50;;;14.20;99.90;;;;;;10358659;28;20080;-66
2021/08/28 07:53:12;;;;;;;5.55;2.60;;;14.40;99.90;;;;;;10366471;28;20183;-66
2021/08/28 07:58:14;;;;;;;7.85;4.38;;;14.40;99.90;;;;;;10363318;28;20109;-66
2021/08/28 08:03:16;;;;;;;2.80;2.45;;;14.50;99.90;;;;;;10360644;28;20116;-66
2021/08/28 08:08:18;;;;;;;3.58;2.28;;;14.80;99.90;;;;;;10361482;28;20093;-66
2021/08/28 08:13:19;;;;;;;3.05;2.25;;;15.10;99.90;;;;;;10358366;28;20617;-66
2021/08/28 08:18:21;;;;;;;3.08;1.92;;;15.20;99.90;;;;;;10352764;28;20046;-66
2021/08/28 08:23:23;;;;;;;2.50;1.55;;;15.40;99.90;;;;;;10361997;28;20132;-66
2021/08/28 08:28:24;;;;;;;3.80;1.83;;;15.40;99.90;;;;;;10359000;28;20448;-66
2021/08/28 08:33:26;;;;;;;3.25;1.85;;;15.50;99.90;;;;;;10356389;28;20667;-68
2021/08/28 08:38:28;;;;;;;4.53;1.73;;;15.40;99.90;;;;;;10360504;28;20054;-68
2021/08/28 08:43:30;;;;;;;2.97;1.40;;;15.70;99.90;;;;;;10362720;28;20053;-68
2021/08/28 08:48:32;;;;;;;3.50;1.48;;;15.90;99.90;;;;;;10365864;28;20478;-68
2021/08/28 08:53:35;;;;;;;3.85;1.17;;;16.20;99.90;;;;;;10365863;28;20476;-68
2021/08/28 08:58:38;;;;;;;1.50;1.00;;;16.30;99.90;;;;;;10370344;28;20542;-68
2021/08/28 09:03:40;;;;;;;1.45;0.70;;;16.70;99.90;;;;;;10360394;28;20054;-68
2021/08/28 09:08:42;;;;;;;1.73;0.70;;;16.50;99.90;;;;;;10363306;28;20060;-68
2021/08/28 09:13:43;;;;;;;0.77;0.57;;;16.60;99.90;;;;;;10369308;28;20042;-67
2021/08/28 09:18:52;;;;;;;1.02;0.50;;;17.00;99.90;;;;;;10369100;28;20068;-67
2021/08/28 09:24:02;;;;;;;0.45;0.30;;;17.20;99.90;;;;;;10357013;28;20081;-67
2021/08/28 09:29:06;;;;;;;0.60;0.30;;;17.30;99.90;;;;;;10369382;28;20041;-67
2021/08/28 09:34:30;;;;;;;0.30;0.30;;;17.70;99.90;;;;;;10401780;28;20046;-67
2021/08/28 09:39:37;;;;;;;1.50;0.40;;;17.60;99.90;;;;;;10376976;28;20056;-68
2021/08/28 09:44:42;;;;;;;0.93;0.40;;;17.50;99.90;;;;;;10387913;28;20054;-68
2021/08/28 09:49:46;;;;;;;1.65;0.45;;;17.50;99.90;;;;;;10377703;28;20099;-67
2021/08/28 09:54:48;;;;;;;3.38;0.60;;;17.60;99.90;;;;;;10365042;28;20049;-67
2021/08/28 09:59:50;;;;;;;1.88;0.40;;;17.70;99.90;;;;;;10357601;28;20057;-66
2021/08/28 10:04:59;;;;;;;2.20;0.52;;;17.90;99.90;;;;;;10361749;28;20057;-66
2021/08/28 10:10:04;;;;;;;0.98;0.45;;;17.40;99.90;;;;;;10370250;28;20038;-66
2021/08/28 10:15:08;;;;;;;0.85;0.38;;;17.20;99.90;;;;;;10363632;28;20054;-65
2021/08/28 10:20:11;;;;;;;0.40;0.30;;;17.00;99.90;;;;;;10370173;28;20448;-67
2021/08/28 10:25:16;;;;;;;0.60;0.30;;;16.70;99.90;;;;;;10352674;28;20108;-65
2021/08/28 10:30:20;;;;;;;0.40;0.20;;;16.20;99.90;;;;;;10360163;28;20077;-65
2021/08/28 10:35:22;;;;;;;0.50;0.50;;;16.40;99.90;;;;;;10365293;28;20053;-65
2021/08/28 10:40:27;;;;;;;1.50;0.50;;;16.40;99.90;;;;;;10364374;28;20386;-65
2021/08/28 10:45:32;;;;;;;0.60;0.40;;;16.50;99.90;;;;;;10360056;28;20096;-65
2021/08/28 10:50:37;;;;;;;0.50;0.40;;;16.60;99.90;;;;;;10365919;28;20111;-66
2021/08/28 10:55:44;;;;;;;1.45;0.30;;;16.80;99.90;;;;;;10361820;28;20050;-65
2021/08/28 11:00:49;;;;;;;;;;;17.00;99.90;;;;;;10363512;28;20096;-67
2021/08/28 11:06:13;;;;;;;0.40;0.28;;;17.00;99.90;;;;;;10362405;28;19922;-68
2021/08/28 11:11:19;;;;;;;1.83;0.40;;;17.20;99.90;;;;;;10357960;28;20050;-67
2021/08/28 11:16:39;;;;;;;0.30;0.25;;;17.60;99.90;;;;;;10363862;28;20053;-67
2021/08/28 11:21:47;;;;;;;0.50;0.40;;;17.90;99.90;;;;;;10361758;28;20153;-66
2021/08/28 11:26:50;;;;;;;1.20;0.50;;;17.80;99.90;;;;;;10361368;28;20054;-67
2021/08/28 11:32:13;;;;;;;0.60;0.17;;;18.20;99.90;;;;;;10359052;28;20061;-67
2021/08/28 11:37:27;;;;;;;4.35;0.20;;;18.70;99.90;;;;;;10362177;28;20049;-67
2021/08/28 11:42:30;;;;;;;0.40;0.00;;;18.70;99.90;;;;;;10361324;28;20049;-67
2021/08/28 11:47:33;;;;;;;0.30;0.20;;;19.30;99.90;;;;;;10362314;28;20057;-66
2021/08/28 11:52:37;;;;;;;0.20;0.20;;;18.80;99.90;;;;;;10363307;28;20373;-67
2021/08/28 11:57:39;;;;;;;0.20;0.17;;;18.70;99.90;;;;;;10359007;28;20050;-67
2021/08/28 12:02:40;;;;;;;0.30;0.20;;;17.80;99.90;;;;;;10358758;28;20049;-69
2021/08/28 12:07:52;;;;;;;1.60;0.13;;;17.90;99.90;;;;;;10360861;28;20054;-69
2021/08/28 12:13:03;;;;;;;1.65;0.17;;;17.70;99.90;;;;;;10362888;28;20582;-68
2021/08/28 12:18:05;;;;;;;1.98;0.10;;;18.20;99.90;;;;;;10359558;28;20077;-66
2021/08/28 12:23:11;;;;;;;0.20;0.10;;;18.40;99.90;;;;;;10367952;28;20136;-66
2021/08/28 12:28:13;;;;;;;0.20;0.10;;;18.10;99.90;;;;;;10372636;28;20081;-67
2021/08/28 12:33:15;;;;;;;0.20;0.13;;;18.30;99.90;;;;;;10375659;28;20102;-66
2021/08/28 12:38:16;;;;;;;0.45;0.10;;;18.50;99.90;;;;;;10372484;28;20146;-67
2021/08/28 12:43:20;;;;;;;0.30;0.10;;;18.60;99.90;;;;;;10377245;28;20045;-67
2021/08/28 12:48:22;;;;;;;0.20;0.10;;;18.60;99.90;;;;;;10371497;28;20049;-68
2021/08/28 12:53:24;;;;;;;0.10;0.10;;;18.80;99.30;;;;;;10373502;28;20396;-68
2021/08/28 12:58:26;;;;;;;0.15;0.00;;;19.30;98.40;;;;;;10375675;28;20053;-66
2021/08/28 13:03:30;;;;;;;0.17;0.05;;;19.60;97.60;;;;;;10372295;28;20126;-66
2021/08/28 13:08:35;;;;;;;0.15;0.10;;;20.20;96.90;;;;;;10379427;28;20469;-66
2021/08/28 13:13:51;;;;;;;0.88;0.10;;;20.40;95.10;;;;;;10376698;28;20041;-66
2021/08/28 13:19:12;;;;;;;0.73;0.10;;;19.50;95.00;;;;;;10370861;28;20053;-67
2021/08/28 13:24:16;;;;;;;1.10;0.10;;;19.10;96.40;;;;;;10367961;28;20392;-67
2021/08/28 13:29:37;;;;;;;0.20;0.03;;;18.50;97.60;;;;;;10368291;28;20037;-66
2021/08/28 13:34:47;;;;;;;0.40;0.10;;;18.90;97.40;;;;;;10361760;28;20053;-67
2021/08/28 13:39:51;;;;;;;0.05;0.00;;;19.00;98.00;;;;;;10365759;28;20045;-68
2021/08/28 13:44:53;;;;;;;1.77;0.10;;;19.50;97.10;;;;;;10378964;28;20080;-68
2021/08/28 13:49:55;;;;;;;1.00;0.40;;;20.60;96.10;;;;;;10362208;28;20718;-68
2021/08/28 13:54:56;;;;;;;0.25;0.00;;;20.40;93.80;;;;;;10366581;28;20053;-67
2021/08/28 13:59:58;;;;;;;0.00;0.00;;;20.80;94.20;;;;;;10368191;28;20111;-68
2021/08/28 14:05:00;;;;;;;0.47;0.00;;;20.40;92.90;;;;;;10363777;28;20509;-67
2021/08/28 14:10:03;;;;;;;0.10;0.10;;;20.80;93.10;;;;;;10373158;28;20050;-68
2021/08/28 14:21:20;;;;;;;0.90;0.60;;;21.00;92.10;;;;;;10364957;28;20049;-69
2021/08/28 14:26:23;;;;;;;0.10;0.10;;;20.00;93.80;;;;;;10364897;28;21656;-68
2021/08/28 14:31:24;;;;;;;1.20;0.00;;;19.40;93.60;;;;;;10368093;28;20045;-67
2021/08/28 14:36:26;;;;;;;0.80;0.10;;;20.90;92.60;;;;;;10369712;28;20107;-69
2021/08/28 14:41:29;;;;;;;0.15;0.10;;;21.40;93.60;;;;;;10367224;28;20111;-68
2021/08/28 14:46:33;;;;;;;0.68;0.13;;;21.40;92.70;;;;;;10364911;28;20131;-66
2021/08/28 14:51:35;;;;;;;0.20;0.10;;;21.10;92.60;;;;;;10366064;28;20048;-68
2021/08/28 14:56:39;;;;;;;1.33;0.45;;;20.70;93.40;;;;;;10363352;28;20112;-68
2021/08/28 15:01:41;;;;;;;0.15;0.10;;;20.10;95.20;;;;;;10359682;28;20084;-68
2021/08/28 15:06:43;;;;;;;0.60;0.13;;;20.10;95.60;;;;;;10365313;28;20072;-65
2021/08/28 15:11:45;;;;;;;0.47;0.10;;;20.90;95.00;;;;;;10361291;28;20124;-64
2021/08/28 15:16:47;;;;;;;0.20;0.20;;;21.30;93.10;;;;;;10361775;28;20138;-65
2021/08/28 15:21:49;;;;;;;4.53;0.43;;;21.40;92.00;;;;;;10362506;28;20057;-64
2021/08/28 15:26:50;;;;;;;0.10;0.10;;;21.10;93.30;;;;;;10362334;28;20579;-63
2021/08/28 15:31:52;;;;;;;0.93;0.10;;;21.40;92.50;;;;;;10353336;28;20050;-64
2021/08/28 15:36:59;;;;;;;0.50;0.10;;;21.50;92.10;;;;;;10359667;28;20111;-64
2021/08/28 15:42:01;;;;;;;0.20;0.08;;;21.60;91.00;;;;;;10355362;28;21092;-63
2021/08/28 15:47:03;;;;;;;0.95;0.10;;;21.80;89.50;;;;;;10358468;28;20069;-64
2021/08/28 15:52:05;;;;;;;0.10;0.10;;;21.80;88.80;;;;;;10359575;28;20104;-64
2021/08/28 15:57:07;;;;;;;1.55;0.30;;;21.60;89.60;;;;;;10357448;28;20124;-64
2021/08/28 16:02:11;;;;;;;0.20;0.20;;;20.80;91.40;;;;;;10360187;28;20050;-65
2021/08/28 16:07:13;;;;;;;1.35;0.40;;;20.30;91.90;;;;;;10359082;28;20045;-64
2021/08/28 16:12:15;;;;;;;1.35;0.17;;;20.20;93.10;;;;;;10365171;28;20045;-64
2021/08/28 16:17:16;;;;;;;0.20;0.10;;;20.10;93.40;;;;;;10358062;28;20102;-64
2021/08/28 16:22:18;;;;;;;2.42;0.65;;;20.10;93.10;;;;;;10362162;28;20115;-64
2021/08/28 16:27:20;;;;;;;2.15;1.40;;;19.40;94.40;;;;;;10358117;28;20081;-64
2021/08/28 16:32:22;;;;;;;0.70;0.40;;;19.50;94.50;;;;;;10358062;28;20048;-64
2021/08/28 16:37:24;;;;;;;0.28;0.20;;;19.40;95.00;;;;;;10359447;28;20127;-64
2021/08/28 16:42:25;;;;;;;0.20;0.15;;;19.30;95.50;;;;;;10360075;28;20081;-63
2021/08/28 16:47:27;;;;;;;1.45;0.50;;;19.00;96.00;;;;;;10357329;28;20461;-63
2021/08/28 16:52:29;;;;;;;0.65;0.20;;;19.00;96.20;;;;;;10357691;28;20050;-63
2021/08/28 16:57:30;;;;;;;1.63;0.30;;;18.70;97.30;;;;;;10352249;28;20107;-63
2021/08/28 17:02:32;;;;;;;0.52;0.30;;;18.70;97.40;;;;;;10356030;28;20128;-63
2021/08/28 17:07:34;;;;;;;2.88;0.20;;;18.40;98.30;;;;;;10357992;28;20112;-63
2021/08/28 17:12:36;;;;;;;1.10;0.20;;;18.40;98.60;;;;;;10361283;28;20393;-63
2021/08/28 17:17:38;;;;;;;0.43;0.20;;;18.30;98.80;;;;;;10364626;28;20072;-69
2021/08/28 17:22:40;;;;;;;0.25;0.20;;;18.20;99.40;;;;;;10367230;28;20130;-70
2021/08/28 17:27:42;;;;;;;1.23;0.10;;;18.20;99.70;;;;;;10366741;28;20054;-69
2021/08/28 17:32:45;;;;;;;0.98;0.20;;;18.10;99.90;;;;;;10368193;28;20100;-69
2021/08/28 17:37:46;;;;;;;0.50;0.20;;;18.00;99.90;;;;;;10370472;28;20105;-69
2021/08/28 17:42:48;;;;;;;0.40;0.10;;;17.90;99.90;;;;;;10360701;28;20041;-70
2021/08/28 17:47:50;;;;;;;0.20;0.10;;;17.80;99.90;;;;;;10367774;28;20056;-69
2021/08/28 17:52:52;;;;;;;0.70;0.38;;;17.80;99.90;;;;;;10362267;28;20119;-70
2021/08/28 17:57:54;;;;;;;1.92;0.40;;;17.80;99.90;;;;;;10364569;28;20803;-71
2021/08/28 18:02:55;;;;;;;0.52;0.22;;;17.70;99.90;;;;;;10367522;28;20116;-70
2021/08/28 18:07:57;;;;;;;0.40;0.20;;;17.40;99.90;;;;;;10365459;28;20176;-70
2021/08/28 18:12:59;;;;;;;1.35;0.30;;;17.40;99.90;;;;;;10360667;28;20045;-71
2021/08/28 18:18:01;;;;;;;0.50;0.20;;;17.40;99.90;;;;;;10360659;28;20112;-69
2021/08/28 18:23:03;;;;;;;1.85;0.30;;;17.30;99.90;;;;;;10360796;28;20057;-69
2021/08/28 18:28:04;;;;;;;0.80;0.38;;;17.10;99.90;;;;;;10361542;28;20077;-69
2021/08/28 18:33:13;;;;;;;0.82;0.30;;;17.00;99.90;;;;;;10356095;28;20045;-70
2021/08/28 18:38:16;;;;;;;0.75;0.30;;;16.90;99.90;;;;;;10365452;28;20057;-69
2021/08/28 18:43:17;;;;;;;0.90;0.40;;;16.90;99.90;;;;;;10358343;28;20116;-69
2021/08/28 18:48:19;;;;;;;0.93;0.50;;;16.80;99.90;;;;;;10361151;28;20115;-70
2021/08/28 18:53:21;;;;;;;0.50;0.30;;;16.80;99.90;;;;;;10362017;28;20049;-63
2021/08/28 18:58:23;;;;;;;0.77;0.40;;;16.70;99.90;;;;;;10359594;28;20119;-64
2021/08/28 19:03:25;;;;;;;1.27;0.50;;;16.60;99.90;;;;;;10360284;28;20148;-65
2021/08/28 19:08:26;;;;;;;0.98;0.45;;;16.50;99.90;;;;;;10359252;28;20111;-64
2021/08/28 19:13:28;;;;;;;0.85;0.38;;;16.40;99.90;;;;;;10359384;28;20046;-64
2021/08/28 19:18:30;;;;;;;0.95;0.50;;;16.40;99.90;;;;;;10361736;28;20053;-63
2021/08/28 19:23:31;;;;;;;2.70;0.73;;;16.40;99.90;;;;;;10362120;28;20112;-64
2021/08/28 19:28:33;;;;;;;3.28;0.63;;;16.30;99.90;;;;;;10355260;28;20143;-63
2021/08/28 19:33:35;;;;;;;0.85;0.50;;;16.40;99.90;;;;;;10361870;28;20096;-64
2021/08/28 19:38:37;;;;;;;1.48;1.20;;;16.30;99.90;;;;;;10358795;28;20091;-64
2021/08/28 19:43:38;;;;;;;1.27;0.70;;;16.30;99.90;;;;;;10357941;28;20053;-64
2021/08/28 19:48:40;;;;;;;1.20;0.80;;;16.30;99.90;;;;;;10361151;28;20107;-64
2021/08/28 19:53:42;;;;;;;4.00;1.30;;;16.20;99.90;;;;;;10359364;28;20108;-64
2021/08/28 19:58:43;;;;;;;2.00;1.27;;;16.20;99.90;;;;;;10362082;28;20101;-64
2021/08/28 20:03:45;;;;;;;1.75;0.50;;;16.20;99.90;;;;;;10366380;28;20056;-64
2021/08/28 20:08:47;;;;;;;1.60;0.80;;;16.00;99.90;;;;;;10360531;28;20084;-64
2021/08/28 20:13:48;;;;;;;3.40;1.27;;;16.00;99.90;;;;;;10368022;28;20109;-64
2021/08/28 20:18:50;;;;;;;6.20;2.97;;;16.00;99.90;;;;;;10370071;28;20107;-65
2021/08/28 20:23:52;;;;;;;6.22;3.60;;;16.00;99.90;;;;;;10366047;28;20060;-64
2021/08/28 20:28:53;;;;;;;3.90;2.97;;;15.90;99.90;;;;;;10361984;28;20042;-64
2021/08/28 20:33:55;;;;;;;5.40;2.70;;;15.80;99.90;;;;;;10360178;28;20443;-64
2021/08/28 20:38:57;;;;;;;6.00;2.15;;;15.80;99.90;;;;;;10360225;28;20054;-64
2021/08/28 20:43:58;;;;;;;6.22;3.25;;;15.80;99.90;;;;;;10360839;28;20157;-64
2021/08/28 20:49:00;;;;;;;6.25;2.28;;;15.80;99.90;;;;;;10366693;28;20099;-63
2021/08/28 20:54:02;;;;;;;2.53;1.73;;;15.80;99.90;;;;;;10373940;28;20057;-63
2021/08/28 20:59:04;;;;;;;2.58;1.20;;;15.70;99.90;;;;;;10369674;28;20120;-63
2021/08/28 21:04:06;;;;;;;2.38;0.90;;;15.50;99.90;;;;;;10389273;28;20045;-63
2021/08/28 21:09:07;;;;;;;4.00;1.70;;;15.40;99.90;;;;;;10367331;28;20054;-63
2021/08/28 21:14:09;;;;;;;2.03;1.20;;;15.40;99.90;;;;;;10368940;28;20054;-63
2021/08/28 21:19:11;;;;;;;3.10;1.33;;;15.30;99.90;;;;;;10369609;28;20073;-63
2021/08/28 21:24:12;;;;;;;6.78;1.65;;;15.30;99.90;;;;;;10362625;28;20057;-63
2021/08/28 21:29:14;;;;;;;4.22;1.48;;;15.20;99.90;;;;;;10366429;28;20253;-62
2021/08/28 21:34:17;;;;;;;4.28;1.40;;;15.20;99.90;;;;;;10366362;28;20558;-63
2021/08/28 21:39:19;;;;;;;4.82;1.60;;;15.20;99.90;;;;;;10363698;28;20100;-63
2021/08/28 21:44:20;;;;;;;2.13;1.30;;;15.20;99.90;;;;;;10366674;28;20054;-62
2021/08/28 21:49:22;;;;;;;1.50;1.02;;;15.00;99.90;;;;;;10367581;28;20124;-63
2021/08/28 21:54:24;;;;;;;3.38;1.48;;;14.90;99.90;;;;;;10362757;28;20053;-64
2021/08/28 21:59:25;;;;;;;2.35;1.42;;;14.90;99.90;;;;;;10366199;28;20187;-63
2021/08/28 22:04:27;;;;;;;5.80;1.45;;;14.90;99.90;;;;;;10364128;28;20074;-63
2021/08/28 22:09:29;;;;;;;3.60;1.30;;;15.00;99.90;;;;;;10368241;28;20761;-63
2021/08/28 22:14:30;;;;;;;2.03;1.30;;;14.90;99.90;;;;;;10363801;28;20124;-63
2021/08/28 22:19:32;;;;;;;2.88;1.73;;;14.90;99.90;;;;;;10365913;28;20054;-63
2021/08/28 22:24:34;;;;;;;3.08;1.73;;;14.80;99.90;;;;;;10364357;28;20107;-63
2021/08/28 22:29:35;;;;;;;5.15;3.17;;;14.90;99.90;;;;;;10363424;28;20131;-63
2021/08/28 22:34:37;;;;;;;6.63;4.15;;;14.90;99.90;;;;;;10367113;28;20131;-63
2021/08/28 22:39:38;;;;;;;10.55;5.18;;;14.90;99.90;;;;;;10363118;28;20114;-63
2021/08/28 22:44:40;;;;;;;7.82;4.28;;;14.90;99.90;;;;;;10363156;28;20073;-63
2021/08/28 22:49:42;;;;;;;10.25;3.78;;;14.90;99.90;;;;;;10363090;28;20095;-63
2021/08/28 22:54:44;;;;;;;5.85;2.95;;;15.00;99.90;;;;;;10364231;28;20053;-63
2021/08/28 22:59:46;;;;;;;3.45;2.10;;;14.90;99.90;;;;;;10365222;28;20058;-63
2021/08/28 23:04:48;;;;;;;4.95;2.00;;;14.90;99.90;;;;;;10363138;28;20496;-62
2021/08/28 23:09:51;;;;;;;3.22;1.98;;;14.90;99.90;;;;;;10363645;28;20471;-63
2021/08/28 23:14:53;;;;;;;5.75;1.75;;;14.80;99.90;;;;;;10361223;28;20053;-62
2021/08/28 23:19:55;;;;;;;4.25;1.70;;;14.80;99.90;;;;;;10362710;28;20066;-63
2021/08/28 23:24:57;;;;;;;5.88;2.75;;;14.70;99.90;;;;;;10360760;28;20104;-63
2021/08/28 23:29:59;;;;;;;3.65;2.17;;;14.80;99.90;;;;;;10362424;28;20050;-63
2021/08/28 23:35:00;;;;;;;4.47;2.10;;;14.80;99.90;;;;;;10361003;28;20045;-63
2021/08/28 23:40:03;;;;;;;3.72;2.00;;;14.80;99.90;;;;;;10361966;28;20054;-63
2021/08/28 23:45:06;;;;;;;2.90;1.60;;;14.80;99.90;;;;;;10362137;28;20046;-62
2021/08/28 23:50:09;;;;;;;4.50;1.30;;;14.70;99.90;;;;;;10364516;28;20712;-63
2021/08/28 23:55:11;;;;;;;4.72;1.63;;;14.70;99.90;;;;;;10361497;28;20050;-63
